Aeroporto :
LOGIN :

Iscrizione | Disclaimer

   EN    FR    IT 

 










Sommario :    VFR   VFR Marginale   IFR   IFR Intensivo   IFR Molto Intensivo
Visibilità : 
Base nubi : 
>= 8 km
>= 3000ft
5 / 8 km
1000 / 3000 ft
1500m / 5 km
500 / 1000 ft
800 / 1500m
200 / 500 ft
< 800m
< 200 ft
Simboli :   Temporali  Nebbia  Neve Forte  Precipitazioni Forti  Vento > 20 kt
SIGMETs :   Varie  Temporali  Ghiacco  Turbolenza  Onda orograficha  Ceneri Vulcaniche






- Altitudine del aeroporto : 285 ft
- Codice IATA : GOZ


LBGO - Gorna Oryahovitsa

ULTIMO METAR :
  • 270530Z AUTO 20014KT 9999 NCD 14/03 Q0999 NOSIG

METARs OBSOLETI :
  • 270500Z AUTO 20013KT 9999 NCD 14/03 Q0999 NOSIG
  • 270430Z AUTO 20012KT 9999 NCD 14/02 Q0998 NOSIG
  • 270400Z AUTO 08006KT 050V110 9999 NCD 10/03 Q0999 NOSIG
  • 270330Z AUTO 21006KT 160V330 9999 NCD 13/04 Q0999
  • 270300Z AUTO 20011KT 9999 NCD 14/04 Q0998

TAF TAF LBGO
Valido dal 27 a 06 ore il 28 a 06 ore UTC


270500Z 2706/2806 20014G24KT 9999 SCT050 SCT070
BECMG 2707/2709 29018G28KT
TEMPO 2709/2711 4000 TSRA SCT015 SCT030CB BKN040
TEMPO 2711/2715 RA SCT015 BKN030
BECMG 2800/2802 VRB04KT



MetMap, La meteo Aeronautica in un colpo d'occhio ! - Copyright ORBIFLY Dicembre 2007 - Disclaimer

ORBIFLY MET'MAP TEAM :

Programmazione e sviluppo : Alexandra Zaïnal
Concezione : Baudouin d'Aumeries
Aiuto per la programmazione : Marc-Olivier Méhu
Supporto tecnico e logistico : Manuel Goepfert
Aiuto per la traduzione : Arnaldo La Scala

Contatto : metmap@orbifly.com




FONTI E CREDITI :

   NOAA